Time;durP1;ratioP1;P1;durP2;ratioP2;P2;SDS_P1;SDS_P2;PMS_P1;PMS_P2;Temp;Humidity;BMP_temperature;BMP_pressure;BME280_temperature;BME280_humidity;BME280_pressure;Samples;Min_cycle;Max_cycle;Signal;HPM_P1;HPM_P2
2022/03/16 00:00:21;;;;;;;0.95;0.93;;;;;;;8.07;62.48;101871.81;5156600;28;20048;-84
2022/03/16 00:02:51;;;;;;;0.85;0.85;;;;;;;8.01;62.10;101868.31;5160807;28;20022;-84
2022/03/16 00:05:23;;;;;;;1.20;1.10;;;;;;;7.93;62.40;101877.00;5127331;28;20218;-83
2022/03/16 00:07:54;;;;;;;0.57;0.57;;;;;;;7.91;62.85;101884.84;5146800;28;20109;-83
2022/03/16 00:10:25;;;;;;;0.95;0.95;;;;;;;7.88;62.44;101879.59;5145032;28;20376;-85
2022/03/16 00:12:55;;;;;;;0.75;0.75;;;;;;;7.93;62.85;101874.38;5145764;28;20026;-85
2022/03/16 00:15:26;;;;;;;3.10;1.85;;;;;;;7.84;63.47;101868.28;5174521;28;20046;-83
2022/03/16 00:17:56;;;;;;;0.98;0.98;;;;;;;7.86;63.32;101881.31;5149039;28;20623;-83
2022/03/16 00:20:27;;;;;;;0.82;0.82;;;;;;;7.84;62.79;101863.03;5131996;28;20056;-83
2022/03/16 00:22:57;;;;;;;0.77;0.77;;;;;;;7.92;63.09;101873.53;5163457;28;20065;-85
2022/03/16 00:25:27;;;;;;;1.52;1.42;;;;;;;7.92;63.45;101863.06;5136005;28;20038;-85
2022/03/16 00:27:58;;;;;;;1.33;1.27;;;;;;;7.92;62.59;101870.03;5176021;28;20074;-84
2022/03/16 00:30:28;;;;;;;1.45;1.35;;;;;;;7.91;62.57;101869.16;5145475;28;20102;-84
2022/03/16 00:32:59;;;;;;;1.00;1.00;;;;;;;7.91;62.39;101868.28;5159806;28;20086;-84
2022/03/16 00:35:30;;;;;;;0.60;0.60;;;;;;;7.88;62.88;101859.59;5161650;28;20042;-84
2022/03/16 00:38:01;;;;;;;0.68;0.68;;;;;;;7.82;63.53;101858.69;5141184;28;20037;-84
2022/03/16 00:40:32;;;;;;;2.45;1.13;;;;;;;7.78;63.31;101857.81;5145297;28;20041;-85
2022/03/16 00:43:02;;;;;;;0.95;0.95;;;;;;;7.76;64.04;101859.53;5154243;28;20492;-84
2022/03/16 00:45:33;;;;;;;2.53;2.33;;;;;;;7.78;64.02;101865.66;5130721;28;20069;-86
2022/03/16 00:48:04;;;;;;;4.00;1.50;;;;;;;7.56;65.00;101862.94;5161175;28;20157;-85
2022/03/16 00:50:34;;;;;;;0.68;0.68;;;;;;;7.51;65.00;101874.25;5175864;28;20049;-84
2022/03/16 00:53:05;;;;;;;1.00;1.00;;;;;;;7.75;64.45;101868.25;5149668;28;20027;-84
2022/03/16 00:55:36;;;;;;;1.17;1.10;;;;;;;7.68;64.10;101863.88;5151237;28;20069;-84
2022/03/16 00:58:06;;;;;;;2.63;2.05;;;;;;;7.69;64.46;101863.88;5142295;28;20022;-84
2022/03/16 01:00:37;;;;;;;0.60;0.60;;;;;;;7.72;64.34;101868.25;5128130;28;20081;-85
2022/03/16 01:03:07;;;;;;;0.80;0.80;;;;;;;7.71;64.05;101866.50;5166177;28;20026;-85
2022/03/16 01:05:37;;;;;;;1.63;0.90;;;;;;;7.68;64.43;101867.38;5148823;28;20040;-84
2022/03/16 01:08:08;;;;;;;1.00;1.00;;;;;;;7.68;64.05;101871.69;5139015;28;20026;-84
2022/03/16 01:10:39;;;;;;;0.75;0.75;;;;;;;7.62;64.27;101867.31;5150521;28;20077;-83
2022/03/16 01:13:10;;;;;;;0.90;0.90;;;;;;;7.60;64.12;101865.56;5150756;28;20018;-86
2022/03/16 01:15:40;;;;;;;1.38;1.27;;;;;;;7.71;64.06;101861.28;5147732;28;20049;-84
2022/03/16 01:18:15;;;;;;;0.63;0.63;;;;;;;7.44;65.97;101860.31;5147541;28;20084;-84
2022/03/16 01:20:45;;;;;;;1.73;1.63;;;;;;;7.56;64.87;101856.88;5170599;28;20038;-86
2022/03/16 01:23:16;;;;;;;1.25;1.23;;;;;;;7.58;64.96;101860.38;5138257;28;20062;-84
2022/03/16 01:25:46;;;;;;;2.33;2.15;;;;;;;7.55;64.59;101863.84;5183046;28;20749;-84
2022/03/16 01:28:17;;;;;;;1.80;1.70;;;;;;;7.56;65.40;101856.88;5179807;28;20042;-84
2022/03/16 01:30:47;;;;;;;2.60;0.80;;;;;;;7.56;64.95;101851.63;5160794;28;20045;-85
2022/03/16 01:33:18;;;;;;;1.13;0.82;;;;;;;7.55;64.73;101845.56;5131669;28;20022;-85
2022/03/16 01:35:48;;;;;;;0.70;0.70;;;;;;;7.65;64.46;101850.78;5150841;28;20574;-84
2022/03/16 01:38:19;;;;;;;1.00;1.00;;;;;;;7.59;64.98;101845.53;5145881;28;20146;-84
2022/03/16 01:40:49;;;;;;;0.65;0.65;;;;;;;7.56;65.09;101849.88;5146341;28;20041;-85
2022/03/16 01:43:20;;;;;;;0.73;0.73;;;;;;;7.52;64.98;101839.44;5162443;28;20094;-84
2022/03/16 01:45:51;;;;;;;0.85;0.85;;;;;;;7.45;65.24;101842.88;5147861;28;20057;-86
2022/03/16 01:48:22;;;;;;;1.00;1.00;;;;;;;7.49;64.78;101842.03;5171043;28;20041;-86
2022/03/16 01:50:54;;;;;;;1.13;1.13;;;;;;;7.55;64.46;101840.34;5146358;28;20034;-85
2022/03/16 01:53:24;;;;;;;1.17;1.17;;;;;;;7.51;64.29;101842.94;5148494;28;20030;-84
2022/03/16 01:55:58;;;;;;;1.27;1.27;;;;;;;7.52;64.38;101840.31;5146884;28;20041;-85
2022/03/16 01:58:28;;;;;;;2.97;1.23;;;;;;;7.53;64.83;101843.78;5146217;28;20321;-84
2022/03/16 02:00:59;;;;;;;5.90;1.73;;;;;;;7.45;64.09;101838.53;5131184;28;20088;-85
2022/03/16 02:03:29;;;;;;;1.83;1.50;;;;;;;7.29;64.93;101836.75;5156936;28;20550;-84
2022/03/16 02:06:03;;;;;;;0.90;0.90;;;;;;;7.40;65.23;101850.69;5143667;28;20049;-83
2022/03/16 02:08:36;;;;;;;18.73;2.05;;;;;;;7.37;64.43;101854.16;5176532;28;20034;-85
2022/03/16 02:11:06;;;;;;;0.73;0.73;;;;;;;7.38;64.25;101848.09;5134969;28;20042;-85
2022/03/16 02:13:37;;;;;;;0.82;0.82;;;;;;;7.41;64.42;101849.84;5162831;28;20283;-84
2022/03/16 02:16:09;;;;;;;0.63;0.63;;;;;;;7.41;63.95;101844.59;5148476;28;20040;-84
2022/03/16 02:18:40;;;;;;;1.37;1.33;;;;;;;7.33;64.46;101843.69;5146796;28;20045;-84
2022/03/16 02:21:12;;;;;;;0.70;0.68;;;;;;;7.39;64.19;101839.38;5141239;28;20045;-84
2022/03/16 02:23:42;;;;;;;3.83;1.77;;;;;;;7.38;64.16;101847.22;5185704;28;20415;-84
2022/03/16 02:26:15;;;;;;;0.77;0.77;;;;;;;7.34;64.48;101841.13;5191108;28;20052;-84
2022/03/16 02:28:46;;;;;;;1.13;1.13;;;;;;;7.31;64.97;101840.25;5192812;28;20032;-84
2022/03/16 02:31:17;;;;;;;0.70;0.70;;;;;;;7.31;64.03;101835.00;5189066;28;20052;-84
2022/03/16 02:33:48;;;;;;;0.80;0.80;;;;;;;7.27;64.46;101831.53;5191736;28;20026;-86
2022/03/16 02:36:19;;;;;;;3.75;2.08;;;;;;;7.13;64.94;101826.22;5153793;28;20057;-85
2022/03/16 02:38:52;;;;;;;1.05;1.05;;;;;;;7.17;64.28;101827.97;5151206;28;20030;-85
2022/03/16 02:41:23;;;;;;;1.10;1.02;;;;;;;7.14;65.16;101832.31;5176476;28;20041;-84
2022/03/16 02:43:53;;;;;;;1.02;1.02;;;;;;;7.16;64.13;101831.44;5145474;28;20502;-84
2022/03/16 02:46:24;;;;;;;0.85;0.85;;;;;;;7.21;63.94;101829.75;5159823;28;20042;-84
2022/03/16 02:48:54;;;;;;;1.25;1.17;;;;;;;7.15;65.38;101834.91;5156558;28;20040;-85
2022/03/16 02:51:25;;;;;;;1.02;1.00;;;;;;;7.12;65.52;101821.88;5133632;28;20050;-86
2022/03/16 02:53:56;;;;;;;0.82;0.82;;;;;;;7.06;64.96;101825.31;5155591;28;20033;-84
2022/03/16 02:56:27;;;;;;;0.63;0.63;;;;;;;7.08;65.28;101838.38;5156020;28;20120;-84
2022/03/16 02:58:57;;;;;;;0.63;0.63;;;;;;;7.05;65.04;101834.00;5151345;28;20065;-86
2022/03/16 03:01:29;;;;;;;0.70;0.70;;;;;;;7.06;65.32;101835.75;5165317;28;20042;-84
2022/03/16 03:04:02;;;;;;;1.58;1.48;;;;;;;7.05;64.95;101827.94;5136618;28;20045;-84
2022/03/16 03:06:33;;;;;;;1.42;1.33;;;;;;;7.10;65.34;101828.81;5141352;28;20555;-84
2022/03/16 03:09:04;;;;;;;2.00;1.88;;;;;;;7.14;64.91;101830.59;5160255;28;20125;-85
2022/03/16 03:11:34;;;;;;;0.70;0.70;;;;;;;7.13;64.65;101825.34;5164987;28;20048;-84
2022/03/16 03:14:05;;;;;;;1.23;1.13;;;;;;;7.09;64.82;101834.88;5160634;28;20464;-84
2022/03/16 03:16:35;;;;;;;0.70;0.70;;;;;;;7.16;64.90;101836.66;5162087;28;20100;-85
2022/03/16 03:19:05;;;;;;;0.77;0.77;;;;;;;7.01;65.45;101836.59;5152008;28;20034;-84
2022/03/16 03:21:36;;;;;;;0.60;0.60;;;;;;;7.02;64.90;101835.72;5149833;28;20046;-84
2022/03/16 03:24:09;;;;;;;1.20;1.20;;;;;;;7.00;64.64;101834.84;5151255;28;20030;-84
2022/03/16 03:26:40;;;;;;;0.60;0.60;;;;;;;6.95;64.81;101831.34;5129453;28;20065;-84
2022/03/16 03:29:24;;;;;;;1.38;1.25;;;;;;;6.91;64.87;101836.53;5226791;28;20723;-83
2022/03/16 03:31:55;;;;;;;0.90;0.90;;;;;;;6.93;64.98;101834.81;5185320;28;20187;-83
2022/03/16 03:34:25;;;;;;;1.45;1.35;;;;;;;6.90;64.96;101836.53;5182193;28;20045;-83
2022/03/16 03:36:56;;;;;;;0.55;0.55;;;;;;;6.81;65.07;101841.69;5169057;28;20049;-83
2022/03/16 03:39:26;;;;;;;3.33;2.65;;;;;;;6.83;65.25;101838.22;5188987;28;20125;-83
2022/03/16 03:41:57;;;;;;;2.17;0.77;;;;;;;6.86;65.44;101838.25;5174205;28;20145;-83
2022/03/16 03:44:31;;;;;;;1.58;0.98;;;;;;;6.85;64.61;101835.63;5174312;28;20446;-82
2022/03/16 03:47:02;;;;;;;1.45;1.38;;;;;;;6.58;65.95;101840.66;5161705;28;20041;-83
2022/03/16 03:49:33;;;;;;;0.85;0.85;;;;;;;6.65;65.09;101838.13;5193015;28;20042;-82
2022/03/16 03:52:05;;;;;;;0.65;0.65;;;;;;;6.61;65.78;101834.63;5188627;28;20126;-82
2022/03/16 03:54:36;;;;;;;0.80;0.80;;;;;;;6.47;65.91;101842.31;5146270;28;20030;-83
2022/03/16 03:57:10;;;;;;;1.15;1.15;;;;;;;6.59;65.92;101836.34;5175933;28;20049;-83
2022/03/16 03:59:40;;;;;;;1.63;1.50;;;;;;;6.66;65.49;101842.44;5158357;28;20034;-82
2022/03/16 04:02:11;;;;;;;0.50;0.50;;;;;;;6.68;65.52;101844.22;5157875;28;20114;-82
2022/03/16 04:04:41;;;;;;;0.95;0.95;;;;;;;6.11;69.48;101846.34;5203553;28;20247;-82
2022/03/16 04:07:12;;;;;;;3.13;2.80;;;;;;;6.11;68.71;101842.03;5156198;28;20049;-82
2022/03/16 04:09:46;;;;;;;0.57;0.57;;;;;;;6.16;68.23;101849.84;5145943;28;20037;-83
2022/03/16 04:12:18;;;;;;;1.98;1.55;;;;;;;5.63;71.31;101853.63;5169292;28;20442;-83
2022/03/16 04:14:48;;;;;;;5.40;2.92;;;;;;;5.94;69.15;101843.56;5171669;28;20034;-82
2022/03/16 04:17:18;;;;;;;1.17;1.17;;;;;;;5.97;68.37;101843.56;5166879;28;20609;-82
2022/03/16 04:19:49;;;;;;;1.63;1.52;;;;;;;6.00;68.29;101841.03;5188583;28;20030;-82
2022/03/16 04:22:22;;;;;;;1.70;1.60;;;;;;;5.62;71.69;101846.69;5153388;28;20085;-82
2022/03/16 04:24:52;;;;;;;2.08;1.98;;;;;;;5.76;70.88;101836.41;5155507;28;20494;-82
2022/03/16 04:27:23;;;;;;;1.90;1.80;;;;;;;5.55;70.76;101839.63;5176897;28;20034;-83
2022/03/16 04:29:53;;;;;;;0.73;0.73;;;;;;;5.70;69.45;101839.84;5169113;28;20516;-83
2022/03/16 04:32:24;;;;;;;0.98;0.95;;;;;;;5.97;68.01;101839.25;5200504;28;20533;-83
2022/03/16 04:34:54;;;;;;;0.45;0.45;;;;;;;6.02;68.26;101841.03;5160354;28;20394;-83
2022/03/16 04:37:25;;;;;;;0.40;0.40;;;;;;;6.05;68.40;101843.69;5138611;28;20469;-83
2022/03/16 04:39:55;;;;;;;1.77;1.67;;;;;;;5.92;68.33;101835.69;5164951;28;20045;-83
2022/03/16 04:42:26;;;;;;;0.70;0.70;;;;;;;6.05;67.37;101834.13;5174789;28;20053;-83
2022/03/16 04:44:56;;;;;;;2.30;2.20;;;;;;;6.09;67.09;101842.84;5164312;28;20034;-83
2022/03/16 04:47:27;;;;;;;1.05;0.95;;;;;;;6.03;68.55;101834.97;5160988;28;20046;-83
2022/03/16 04:49:57;;;;;;;1.65;1.30;;;;;;;5.95;68.14;101835.75;5155575;28;20297;-83
2022/03/16 04:52:27;;;;;;;1.50;1.45;;;;;;;6.10;67.59;101842.88;5159903;28;20512;-83
2022/03/16 04:54:58;;;;;;;0.47;0.47;;;;;;;6.06;66.96;101832.41;5143496;28;20018;-84
2022/03/16 04:57:28;;;;;;;1.23;1.23;;;;;;;6.08;67.55;101842.00;5149727;28;20061;-83
2022/03/16 04:59:59;;;;;;;0.68;0.68;;;;;;;6.02;66.81;101836.72;5168121;28;20026;-83
2022/03/16 05:02:30;;;;;;;0.70;0.70;;;;;;;6.05;67.03;101830.66;5169871;28;20052;-83
2022/03/16 05:05:00;;;;;;;1.42;1.33;;;;;;;5.77;67.99;101828.63;5164727;28;20025;-83
2022/03/16 05:07:31;;;;;;;1.38;1.23;;;;;;;5.97;67.26;101834.03;5167482;28;20088;-83
2022/03/16 05:10:02;;;;;;;0.95;0.95;;;;;;;5.52;70.39;101832.66;5167359;28;20826;-83
2022/03/16 05:12:43;;;;;;;0.82;0.82;;;;;;;5.22;72.01;101831.44;5152075;28;20044;-83
2022/03/16 05:15:16;;;;;;;1.05;1.05;;;;;;;4.80;74.51;101843.00;5182198;28;20216;-84
2022/03/16 05:17:47;;;;;;;0.65;0.65;;;;;;;5.26;70.35;101837.56;5179042;28;20030;-83
2022/03/16 05:20:17;;;;;;;0.70;0.70;;;;;;;5.56;69.11;101847.47;5162074;28;20041;-83
2022/03/16 05:22:51;;;;;;;1.73;1.63;;;;;;;5.75;68.23;101853.78;5180036;28;20474;-83
2022/03/16 05:25:25;;;;;;;1.63;1.35;;;;;;;5.47;69.26;101853.44;5178279;28;22754;-83
2022/03/16 05:27:56;;;;;;;1.13;1.13;;;;;;;5.32;70.56;101854.13;5180985;28;20418;-83
2022/03/16 05:30:27;;;;;;;1.95;1.85;;;;;;;5.23;70.57;101848.81;5160297;28;20108;-83
2022/03/16 05:33:00;;;;;;;1.63;1.58;;;;;;;4.90;72.56;101855.28;5182494;28;20025;-83
2022/03/16 05:35:31;;;;;;;1.38;1.38;;;;;;;4.56;75.89;101849.56;5174898;28;20300;-82
2022/03/16 05:38:05;;;;;;;0.90;0.88;;;;;;;4.62;75.03;101839.25;5197533;28;20056;-83
2022/03/16 05:40:36;;;;;;;2.08;1.52;;;;;;;4.78;73.32;101845.59;5169790;28;20121;-83
2022/03/16 05:43:08;;;;;;;1.23;1.20;;;;;;;5.07;70.91;101842.50;5170673;28;20061;-83
2022/03/16 05:45:39;;;;;;;0.77;0.77;;;;;;;5.00;71.39;101851.09;5170761;28;20037;-83
2022/03/16 05:48:12;;;;;;;;;;;;;;;5.17;70.25;101864.31;5172227;28;20022;-83
2022/03/16 05:50:45;;;;;;;1.60;1.55;;;;;;;5.02;70.83;101865.00;5189076;28;20760;-83
2022/03/16 05:53:15;;;;;;;1.52;1.48;;;;;;;4.79;73.78;101862.03;5170235;28;20103;-83
2022/03/16 05:55:47;;;;;;;0.82;0.82;;;;;;;4.75;74.15;101857.66;5148015;28;20038;-83
2022/03/16 05:58:17;;;;;;;0.63;0.63;;;;;;;4.48;75.49;101857.22;5155437;28;20030;-83
2022/03/16 06:00:48;;;;;;;2.65;2.45;;;;;;;4.40;76.13;101858.81;5162224;28;20068;-84
2022/03/16 06:03:18;;;;;;;1.02;1.02;;;;;;;4.22;77.40;101857.66;5141933;28;20540;-83
2022/03/16 06:05:49;;;;;;;5.05;3.75;;;;;;;4.43;76.11;101858.91;5156964;28;20033;-83
2022/03/16 06:08:19;;;;;;;3.30;3.03;;;;;;;4.85;72.28;101863.03;5136426;28;20054;-83
2022/03/16 06:10:50;;;;;;;3.33;3.05;;;;;;;4.98;71.77;101865.78;5172992;28;20067;-83
2022/03/16 06:13:20;;;;;;;1.00;1.00;;;;;;;4.94;71.50;101864.88;5180014;28;20022;-82
2022/03/16 06:15:51;;;;;;;1.83;1.73;;;;;;;4.80;74.00;101856.00;5169812;28;20045;-83
2022/03/16 06:18:21;;;;;;;1.50;1.48;;;;;;;4.83;74.31;101851.72;5167527;28;20033;-83
2022/03/16 06:20:52;;;;;;;2.05;1.95;;;;;;;4.97;72.87;101851.03;5171486;28;20057;-81
2022/03/16 06:23:22;;;;;;;1.70;1.60;;;;;;;4.79;73.29;101849.03;5179464;28;20041;-80
2022/03/16 06:25:53;;;;;;;3.70;2.15;;;;;;;4.77;73.17;101845.53;5173159;28;20041;-82
2022/03/16 06:28:23;;;;;;;2.25;2.05;;;;;;;4.80;73.76;101856.00;5148570;28;20125;-79
2022/03/16 06:30:54;;;;;;;1.25;1.25;;;;;;;4.99;73.15;101850.22;5183870;28;20037;-79
2022/03/16 06:33:24;;;;;;;1.00;1.00;;;;;;;4.82;73.60;101862.09;5177916;28;20062;-80
2022/03/16 06:35:55;;;;;;;0.95;0.95;;;;;;;4.77;73.88;101858.53;5185043;28;20041;-80
2022/03/16 06:38:25;;;;;;;2.22;1.92;;;;;;;4.71;74.90;101859.34;5168069;28;20149;-80
2022/03/16 06:40:59;;;;;;;0.60;0.60;;;;;;;4.98;72.52;101858.88;5157672;28;20060;-80
2022/03/16 06:43:29;;;;;;;0.55;0.55;;;;;;;4.98;73.11;101858.88;5170157;28;20129;-81
2022/03/16 06:46:00;;;;;;;2.20;2.05;;;;;;;5.17;72.02;101864.31;5172984;28;20125;-81
2022/03/16 06:48:30;;;;;;;0.70;0.70;;;;;;;5.09;72.20;101865.94;5169583;28;20109;-80
2022/03/16 06:51:01;;;;;;;0.40;0.40;;;;;;;5.19;71.59;101867.81;5189231;28;20045;-81
2022/03/16 06:53:31;;;;;;;1.63;1.45;;;;;;;5.26;71.51;101864.44;5170336;28;20014;-81
2022/03/16 06:56:03;;;;;;;0.63;0.63;;;;;;;5.36;71.68;101868.94;5152512;28;20038;-81
2022/03/16 06:58:36;;;;;;;2.30;2.10;;;;;;;5.35;71.29;101869.78;5166588;28;20022;-81
2022/03/16 07:01:06;;;;;;;0.52;0.52;;;;;;;5.21;73.14;101868.72;5168216;28;20025;-81
2022/03/16 07:03:37;;;;;;;1.35;1.35;;;;;;;5.39;71.51;101864.63;5156596;28;20104;-81
2022/03/16 07:06:08;;;;;;;0.95;0.95;;;;;;;5.33;72.97;101863.66;5181268;28;20046;-81
2022/03/16 07:08:39;;;;;;;0.90;0.90;;;;;;;5.40;73.41;101861.16;5183554;28;20076;-82
2022/03/16 07:11:09;;;;;;;1.27;1.17;;;;;;;5.39;72.11;101862.03;5166616;28;20080;-81
2022/03/16 07:13:42;;;;;;;1.02;1.02;;;;;;;5.43;73.66;101862.06;5180532;28;20393;-82
2022/03/16 07:16:13;;;;;;;0.80;0.80;;;;;;;5.48;71.62;101859.53;5184028;28;20293;-81
2022/03/16 07:18:44;;;;;;;1.10;1.10;;;;;;;5.53;72.05;101863.06;5180169;28;20041;-81
2022/03/16 07:21:14;;;;;;;1.67;1.58;;;;;;;5.56;71.92;101860.50;5185910;28;20046;-82
2022/03/16 07:23:45;;;;;;;1.70;1.30;;;;;;;5.44;73.38;101857.72;5185467;28;20022;-80
2022/03/16 07:26:15;;;;;;;1.63;1.52;;;;;;;5.58;71.77;101856.16;5147875;28;20039;-81
2022/03/16 07:28:46;;;;;;;1.17;1.17;;;;;;;5.65;72.99;101850.19;5160510;28;20069;-80
2022/03/16 07:31:17;;;;;;;1.00;0.95;;;;;;;5.57;72.90;101858.75;5164683;28;20046;-81
2022/03/16 07:33:47;;;;;;;1.83;1.73;;;;;;;5.66;71.51;101859.72;5166439;28;20175;-80
2022/03/16 07:36:18;;;;;;;3.03;1.95;;;;;;;5.51;75.47;101869.97;5186791;28;20042;-82
2022/03/16 07:38:48;;;;;;;1.10;1.10;;;;;;;5.59;73.23;101863.13;5163271;28;20026;-80
2022/03/16 07:41:19;;;;;;;2.38;2.25;;;;;;;5.71;73.52;101871.94;5174532;28;20047;-80
2022/03/16 07:43:49;;;;;;;0.90;0.90;;;;;;;5.64;74.87;101871.00;5141287;28;20033;-81
2022/03/16 07:46:20;;;;;;;0.95;0.95;;;;;;;5.81;72.55;101866.00;5162332;28;20121;-81
2022/03/16 07:48:50;;;;;;;1.55;1.48;;;;;;;5.90;72.12;101857.38;5134160;28;20034;-81
2022/03/16 07:51:21;;;;;;;0.73;0.73;;;;;;;5.81;74.74;101858.19;5155920;28;20056;-81
2022/03/16 07:53:51;;;;;;;1.52;1.48;;;;;;;5.73;74.81;101865.03;5166525;28;20130;-81
2022/03/16 07:56:22;;;;;;;3.13;2.08;;;;;;;5.86;73.97;101871.25;5166891;28;20084;-81
2022/03/16 07:58:54;;;;;;;1.58;1.52;;;;;;;6.09;71.97;101868.91;5160109;28;20375;-81
2022/03/16 08:01:24;;;;;;;2.13;2.03;;;;;;;6.11;73.05;101864.59;5161815;28;20038;-81
2022/03/16 08:03:55;;;;;;;1.15;1.15;;;;;;;5.89;75.03;101866.94;5123316;28;20030;-80
2022/03/16 08:06:25;;;;;;;2.92;1.88;;;;;;;6.04;73.70;101875.81;5170013;28;20550;-81
2022/03/16 08:08:56;;;;;;;1.63;1.58;;;;;;;5.84;76.06;101871.22;5135703;28;20041;-81
2022/03/16 08:11:26;;;;;;;0.93;0.93;;;;;;;6.01;73.82;101870.56;5123767;28;20125;-81
2022/03/16 08:13:59;;;;;;;2.17;2.03;;;;;;;6.13;73.17;101868.09;5137755;28;20336;-81
2022/03/16 08:16:33;;;;;;;2.60;2.40;;;;;;;6.03;75.81;101858.44;5145339;28;20244;-82
2022/03/16 08:19:04;;;;;;;3.28;3.00;;;;;;;5.93;75.65;101853.09;5159391;28;20037;-81
2022/03/16 08:21:35;;;;;;;3.78;3.45;;;;;;;6.07;74.74;101844.59;5160136;28;20536;-81
2022/03/16 08:24:05;;;;;;;1.35;1.35;;;;;;;6.04;75.88;101839.34;5174898;28;20021;-82
2022/03/16 08:26:36;;;;;;;1.08;1.00;;;;;;;6.29;73.46;101824.78;5172259;28;20176;-80
2022/03/16 08:29:07;;;;;;;0.63;0.63;;;;;;;6.11;75.69;101822.91;5203139;28;20033;-81
2022/03/16 08:31:38;;;;;;;3.67;2.35;;;;;;;6.11;76.08;101836.81;5156187;28;20045;-82
2022/03/16 08:34:09;;;;;;;0.88;0.88;;;;;;;6.04;76.71;101836.72;5164624;28;20061;-81
2022/03/16 08:36:39;;;;;;;2.35;2.25;;;;;;;6.26;75.73;101846.47;5167583;28;20161;-81
2022/03/16 08:39:10;;;;;;;3.75;2.28;;;;;;;6.20;76.02;101838.63;5170187;28;20034;-82
2022/03/16 08:41:40;;;;;;;1.50;1.40;;;;;;;6.42;74.76;101844.00;5166521;28;20030;-81
2022/03/16 08:44:11;;;;;;;6.13;2.00;;;;;;;6.36;75.70;101851.78;5160320;28;20035;-82
2022/03/16 08:46:41;;;;;;;3.53;2.35;;;;;;;6.46;75.57;101838.81;5156645;28;20035;-81
2022/03/16 08:49:21;;;;;;;2.13;1.42;;;;;;;6.40;76.74;101838.78;5168081;28;20271;-82
2022/03/16 08:51:51;;;;;;;2.20;2.03;;;;;;;6.49;75.53;101831.91;5165047;28;20038;-81
2022/03/16 08:54:23;;;;;;;0.70;0.70;;;;;;;6.56;74.71;101836.28;5162777;28;20280;-81
2022/03/16 08:56:54;;;;;;;2.40;2.22;;;;;;;6.59;76.24;101839.78;5187082;28;20034;-81
2022/03/16 08:59:24;;;;;;;0.82;0.82;;;;;;;6.60;74.62;101836.34;5179656;28;20041;-81
2022/03/16 09:01:55;;;;;;;2.03;1.85;;;;;;;6.70;75.17;101831.19;5148786;28;20058;-81
2022/03/16 09:04:25;;;;;;;0.75;0.75;;;;;;;6.71;75.44;101833.78;5158061;28;20033;-82
2022/03/16 09:06:58;;;;;;;1.83;1.73;;;;;;;6.77;75.86;101828.63;5195472;28;20257;-81
2022/03/16 09:09:30;;;;;;;0.82;0.82;;;;;;;6.88;75.31;101831.31;5200833;28;20036;-81
2022/03/16 09:12:11;;;;;;;0.50;0.50;;;;;;;6.91;75.41;101827.84;5192328;28;20049;-81
2022/03/16 09:14:43;;;;;;;1.95;1.40;;;;;;;6.94;75.33;101820.03;5215423;23;20056;-79
2022/03/16 09:17:14;;;;;;;3.60;1.58;;;;;;;7.03;75.60;101811.38;5207618;28;20065;-79
2022/03/16 09:19:45;;;;;;;1.65;1.55;;;;;;;7.01;75.72;101813.09;5191443;28;20049;-80
2022/03/16 09:22:15;;;;;;;2.67;2.47;;;;;;;7.19;74.79;101821.03;5186318;28;20045;-79
2022/03/16 09:24:48;;;;;;;0.70;0.70;;;;;;;7.19;74.45;101826.25;5166917;28;20445;-80
2022/03/16 09:27:19;;;;;;;0.30;0.30;;;;;;;7.26;74.93;101827.16;5165878;28;20577;-79
2022/03/16 09:29:49;;;;;;;1.73;1.63;;;;;;;7.40;73.79;101835.03;5178446;28;20034;-79
2022/03/16 09:32:23;;;;;;;1.30;1.20;;;;;;;7.40;73.39;101833.31;5135352;28;20066;-79
2022/03/16 09:34:53;;;;;;;2.47;2.28;;;;;;;7.44;74.29;101821.13;5167278;28;20093;-78
2022/03/16 09:37:24;;;;;;;0.95;0.95;;;;;;;7.45;73.66;101828.09;5158827;28;20042;-79
2022/03/16 09:39:54;;;;;;;11.73;2.40;;;;;;;7.52;73.50;101827.25;5153551;28;20037;-78
2022/03/16 09:42:29;;;;;;;2.50;2.35;;;;;;;7.57;73.41;101819.44;5159161;28;20050;-78
2022/03/16 09:45:03;;;;;;;1.10;1.10;;;;;;;7.67;73.96;101823.81;5177340;28;20026;-78
2022/03/16 09:47:36;;;;;;;2.03;1.83;;;;;;;7.74;73.10;101814.25;5155865;28;20069;-78
2022/03/16 09:50:06;;;;;;;2.47;1.52;;;;;;;7.78;73.02;101809.88;5164522;28;20045;-78
2022/03/16 09:52:39;;;;;;;1.17;1.10;;;;;;;7.74;73.62;101813.38;5155067;28;20117;-79
2022/03/16 09:55:09;;;;;;;1.00;1.00;;;;;;;7.84;73.48;101813.41;5157407;28;20101;-79
2022/03/16 09:57:41;;;;;;;2.90;1.65;;;;;;;7.94;73.12;101823.88;5156773;28;20045;-78
2022/03/16 10:00:13;;;;;;;1.08;1.08;;;;;;;7.99;73.08;101814.28;5167487;28;20046;-79
2022/03/16 10:02:43;;;;;;;1.05;1.05;;;;;;;8.04;72.69;101813.41;5156390;28;20462;-80
2022/03/16 10:05:15;;;;;;;0.98;0.98;;;;;;;8.12;72.10;101802.97;5159736;28;20022;-81
2022/03/16 10:07:46;;;;;;;0.40;0.40;;;;;;;8.28;71.54;101798.63;5160026;28;20042;-80
2022/03/16 10:13:19;;;;;;;1.77;1.67;;;;;;;8.46;72.11;101800.38;5155049;28;20026;-79
2022/03/16 10:15:52;;;;;;;1.40;1.30;;;;;;;8.40;72.55;101797.72;5138811;28;20305;-80
2022/03/16 10:18:23;;;;;;;1.45;1.35;;;;;;;8.50;72.82;101796.91;5155678;28;20116;-79
2022/03/16 10:20:56;;;;;;;1.25;1.15;;;;;;;8.60;71.42;101789.03;5159772;28;20403;-80
2022/03/16 10:23:28;;;;;;;1.25;1.25;;;;;;;8.84;70.85;101800.31;5155792;28;20033;-79
2022/03/16 10:26:00;;;;;;;0.73;0.73;;;;;;;8.86;69.80;101788.09;5170757;28;20473;-78
2022/03/16 10:28:32;;;;;;;1.02;0.90;;;;;;;8.93;68.05;101793.31;5159857;28;20414;-78
2022/03/16 10:31:08;;;;;;;0.95;0.95;;;;;;;8.98;68.08;101788.06;5180768;28;20042;-80
2022/03/16 10:33:48;;;;;;;0.80;0.80;;;;;;;8.90;68.71;101806.41;5164052;28;20394;-80
2022/03/16 10:36:25;;;;;;;0.35;0.35;;;;;;;9.02;67.75;101788.91;5162144;28;20431;-80
2022/03/16 10:39:03;;;;;;;1.60;1.50;;;;;;;9.13;67.50;101793.22;5162050;28;20447;-80
2022/03/16 10:47:24;;;;;;;0.60;0.60;;;;;;;9.29;67.09;101788.81;5161792;28;20048;-81
2022/03/16 10:50:09;;;;;;;1.77;1.63;;;;;;;9.42;66.87;101776.53;5151978;28;20155;-80
2022/03/16 10:52:41;;;;;;;0.65;0.65;;;;;;;9.48;66.35;101780.88;5147270;28;20231;-80
2022/03/16 10:55:13;;;;;;;1.43;1.27;;;;;;;9.63;65.80;101776.41;5149817;28;20166;-80
2022/03/16 10:57:45;;;;;;;0.73;0.73;;;;;;;9.66;66.13;101777.25;5174667;28;20288;-79
2022/03/16 11:00:17;;;;;;;0.50;0.50;;;;;;;9.64;66.15;101768.53;5146848;28;20113;-80
2022/03/16 11:02:50;;;;;;;3.22;1.98;;;;;;;9.73;65.47;101762.38;5145883;28;20035;-80
2022/03/16 11:05:23;;;;;;;1.33;1.23;;;;;;;9.76;65.60;101762.34;5131319;28;20026;-79
2022/03/16 11:07:55;;;;;;;1.02;1.02;;;;;;;9.84;64.79;101750.03;5172755;28;20030;-79
2022/03/16 11:10:26;;;;;;;0.68;0.68;;;;;;;9.99;63.75;101759.56;5183900;28;20327;-79
2022/03/16 11:15:50;;;;;;;0.63;0.63;;;;;;;9.98;63.69;101752.56;5164899;28;20046;-80
2022/03/16 11:18:23;;;;;;;1.65;1.55;;;;;;;10.06;62.99;101745.50;5150144;28;20129;-79
2022/03/16 11:20:58;;;;;;;0.77;0.77;;;;;;;10.15;63.10;101757.69;5158795;28;20509;-80
2022/03/16 11:26:26;;;;;;;;;;;;;;;10.14;63.46;101753.31;5177166;28;20133;-78
2022/03/16 11:29:39;;;;;;;1.35;1.27;;;;;;;10.26;63.12;101752.34;5152941;28;22437;-79
2022/03/16 11:32:15;;;;;;;0.50;0.50;;;;;;;10.34;63.19;101752.25;5174877;28;20042;-79
2022/03/16 11:34:55;;;;;;;1.00;1.00;;;;;;;10.51;63.29;101745.13;5160014;28;20077;-79
2022/03/16 11:37:59;;;;;;;20.05;1.35;;;;;;;10.51;62.78;101736.38;5159679;28;20573;-79
2022/03/16 11:40:30;;;;;;;0.50;0.50;;;;;;;10.63;62.50;101736.25;5171913;28;20042;-79
2022/03/16 11:43:04;;;;;;;0.93;0.90;;;;;;;10.78;62.58;101734.34;5173185;28;20069;-79
2022/03/16 11:45:37;;;;;;;0.80;0.80;;;;;;;10.76;61.96;101730.88;5182717;28;20422;-81
2022/03/16 11:48:26;;;;;;;1.65;1.27;;;;;;;10.80;61.96;101722.94;5190695;28;20027;-80
2022/03/16 11:51:21;;;;;;;0.95;0.95;;;;;;;10.96;61.29;101726.22;5158556;28;20668;-81
2022/03/16 11:53:54;;;;;;;1.15;1.05;;;;;;;11.08;60.33;101719.09;5175701;28;20137;-78
2022/03/16 11:56:26;;;;;;;0.93;0.93;;;;;;;11.18;60.52;101724.19;5165944;28;20062;-79
2022/03/16 11:59:04;;;;;;;0.63;0.60;;;;;;;11.18;59.89;101718.94;5178182;28;20037;-79
2022/03/16 12:01:39;;;;;;;1.58;1.48;;;;;;;11.25;59.72;101718.84;5163742;28;20042;-80
2022/03/16 12:04:15;;;;;;;0.50;0.50;;;;;;;11.34;59.75;101723.97;5181015;28;20118;-79
2022/03/16 12:06:48;;;;;;;0.77;0.77;;;;;;;11.50;59.76;101714.13;5164797;28;20133;-79
2022/03/16 12:09:20;;;;;;;;;;;;;;;11.47;58.89;101722.94;5151689;28;20038;-79